sensor_id;sensor_type;location;lat;lon;timestamp;pressure;altitude;pressure_sealevel;temperature;humidity
20620;BME280;10469;42.720;23.252;2023-06-10T00:00:43;94523.69;;;17.00;100.00
20620;BME280;10469;42.720;23.252;2023-06-10T00:03:10;94520.34;;;17.08;100.00
20620;BME280;10469;42.720;23.252;2023-06-10T00:05:36;94524.72;;;17.04;100.00
20620;BME280;10469;42.720;23.252;2023-06-10T00:08:05;94519.31;;;17.04;100.00
20620;BME280;10469;42.720;23.252;2023-06-10T00:10:34;94511.91;;;16.86;100.00
20620;BME280;10469;42.720;23.252;2023-06-10T00:13:06;94514.50;;;16.96;100.00
20620;BME280;10469;42.720;23.252;2023-06-10T00:15:36;94501.16;;;17.04;100.00
20620;BME280;10469;42.720;23.252;2023-06-10T00:18:03;94512.03;;;17.28;100.00
20620;BME280;10469;42.720;23.252;2023-06-10T00:20:30;94502.31;;;17.22;100.00
20620;BME280;10469;42.720;23.252;2023-06-10T00:22:57;94508.97;;;17.35;100.00
20620;BME280;10469;42.720;23.252;2023-06-10T00:25:24;94518.44;;;17.38;100.00
20620;BME280;10469;42.720;23.252;2023-06-10T00:27:51;94509.13;;;17.44;100.00
20620;BME280;10469;42.720;23.252;2023-06-10T00:30:17;94507.75;;;17.46;100.00
20620;BME280;10469;42.720;23.252;2023-06-10T00:32:42;94507.88;;;17.36;100.00
20620;BME280;10469;42.720;23.252;2023-06-10T00:35:08;94498.97;;;17.30;100.00
20620;BME280;10469;42.720;23.252;2023-06-10T00:37:34;94504.69;;;17.29;100.00
20620;BME280;10469;42.720;23.252;2023-06-10T00:40:02;94505.69;;;17.14;100.00
20620;BME280;10469;42.720;23.252;2023-06-10T00:42:28;94517.03;;;17.16;100.00
20620;BME280;10469;42.720;23.252;2023-06-10T00:44:57;94518.75;;;17.31;100.00
20620;BME280;10469;42.720;23.252;2023-06-10T00:47:23;94527.91;;;17.40;100.00
20620;BME280;10469;42.720;23.252;2023-06-10T00:49:49;94519.97;;;17.44;100.00
20620;BME280;10469;42.720;23.252;2023-06-10T00:52:16;94516.63;;;17.52;100.00
20620;BME280;10469;42.720;23.252;2023-06-10T00:54:42;94511.16;;;17.57;100.00
20620;BME280;10469;42.720;23.252;2023-06-10T00:57:09;94526.84;;;17.60;100.00
20620;BME280;10469;42.720;23.252;2023-06-10T00:59:35;94516.00;;;17.36;100.00
20620;BME280;10469;42.720;23.252;2023-06-10T01:02:01;94509.72;;;17.41;100.00
20620;BME280;10469;42.720;23.252;2023-06-10T01:04:28;94526.78;;;17.41;100.00
20620;BME280;10469;42.720;23.252;2023-06-10T01:07:17;94543.38;;;17.35;100.00
20620;BME280;10469;42.720;23.252;2023-06-10T01:12:34;94532.72;;;17.43;100.00
20620;BME280;10469;42.720;23.252;2023-06-10T01:15:04;94533.53;;;17.44;100.00
20620;BME280;10469;42.720;23.252;2023-06-10T01:17:30;94536.03;;;17.40;100.00
20620;BME280;10469;42.720;23.252;2023-06-10T01:19:57;94538.50;;;17.37;100.00
20620;BME280;10469;42.720;23.252;2023-06-10T01:22:24;94543.38;;;17.35;100.00
20620;BME280;10469;42.720;23.252;2023-06-10T01:24:52;94537.97;;;17.35;100.00
20620;BME280;10469;42.720;23.252;2023-06-10T01:27:19;94536.28;;;17.39;100.00
20620;BME280;10469;42.720;23.252;2023-06-10T01:29:51;94530.59;;;17.40;100.00
20620;BME280;10469;42.720;23.252;2023-06-10T01:32:40;94519.00;;;17.35;100.00
20620;BME280;10469;42.720;23.252;2023-06-10T01:35:08;94521.75;;;17.29;100.00
20620;BME280;10469;42.720;23.252;2023-06-10T01:37:35;94520.41;;;17.32;100.00
20620;BME280;10469;42.720;23.252;2023-06-10T01:40:02;94514.63;;;17.39;100.00
20620;BME280;10469;42.720;23.252;2023-06-10T01:42:32;94509.31;;;17.28;100.00
20620;BME280;10469;42.720;23.252;2023-06-10T01:44:58;94513.56;;;17.35;100.00
20620;BME280;10469;42.720;23.252;2023-06-10T01:47:24;94515.66;;;17.43;100.00
20620;BME280;10469;42.720;23.252;2023-06-10T01:49:50;94514.28;;;17.45;100.00
20620;BME280;10469;42.720;23.252;2023-06-10T01:52:15;94525.38;;;17.49;100.00
20620;BME280;10469;42.720;23.252;2023-06-10T01:54:41;94519.28;;;17.57;100.00
20620;BME280;10469;42.720;23.252;2023-06-10T01:57:07;94500.19;;;17.43;100.00
20620;BME280;10469;42.720;23.252;2023-06-10T01:59:33;94504.81;;;17.43;100.00
20620;BME280;10469;42.720;23.252;2023-06-10T02:01:58;94511.56;;;17.45;100.00
20620;BME280;10469;42.720;23.252;2023-06-10T02:04:24;94505.13;;;17.41;100.00
20620;BME280;10469;42.720;23.252;2023-06-10T02:06:49;94505.69;;;17.38;100.00
20620;BME280;10469;42.720;23.252;2023-06-10T02:09:16;94498.88;;;17.41;100.00
20620;BME280;10469;42.720;23.252;2023-06-10T02:11:44;94498.34;;;17.39;100.00
20620;BME280;10469;42.720;23.252;2023-06-10T02:14:09;94506.88;;;17.51;100.00
20620;BME280;10469;42.720;23.252;2023-06-10T02:16:35;94497.84;;;17.37;100.00
20620;BME280;10469;42.720;23.252;2023-06-10T02:19:01;94508.63;;;17.42;100.00
20620;BME280;10469;42.720;23.252;2023-06-10T02:21:31;94500.66;;;17.26;100.00
20620;BME280;10469;42.720;23.252;2023-06-10T02:23:56;94491.53;;;17.17;100.00
20620;BME280;10469;42.720;23.252;2023-06-10T02:26:22;94487.53;;;17.15;100.00
20620;BME280;10469;42.720;23.252;2023-06-10T02:28:48;94498.28;;;17.20;100.00
20620;BME280;10469;42.720;23.252;2023-06-10T02:31:14;94483.34;;;17.22;100.00
20620;BME280;10469;42.720;23.252;2023-06-10T02:33:39;94494.34;;;17.36;100.00
20620;BME280;10469;42.720;23.252;2023-06-10T02:36:06;94484.88;;;17.34;100.00
20620;BME280;10469;42.720;23.252;2023-06-10T02:38:31;94495.91;;;17.13;100.00
20620;BME280;10469;42.720;23.252;2023-06-10T02:40:57;94478.06;;;17.12;100.00
20620;BME280;10469;42.720;23.252;2023-06-10T02:43:23;94475.69;;;17.29;100.00
20620;BME280;10469;42.720;23.252;2023-06-10T02:45:48;94485.97;;;17.33;100.00
20620;BME280;10469;42.720;23.252;2023-06-10T02:48:14;94455.63;;;17.07;100.00
20620;BME280;10469;42.720;23.252;2023-06-10T02:50:39;94479.28;;;17.25;100.00
20620;BME280;10469;42.720;23.252;2023-06-10T02:53:05;94481.41;;;17.28;100.00
20620;BME280;10469;42.720;23.252;2023-06-10T02:55:31;94477.38;;;17.25;100.00
20620;BME280;10469;42.720;23.252;2023-06-10T02:57:57;94488.44;;;17.29;100.00
20620;BME280;10469;42.720;23.252;2023-06-10T03:00:24;94489.72;;;17.37;100.00
20620;BME280;10469;42.720;23.252;2023-06-10T03:02:50;94501.19;;;17.28;100.00
20620;BME280;10469;42.720;23.252;2023-06-10T03:05:16;94485.06;;;17.13;100.00
20620;BME280;10469;42.720;23.252;2023-06-10T03:07:42;94494.97;;;17.28;100.00
20620;BME280;10469;42.720;23.252;2023-06-10T03:10:08;94500.47;;;17.18;100.00
20620;BME280;10469;42.720;23.252;2023-06-10T03:12:33;94507.34;;;17.10;100.00
20620;BME280;10469;42.720;23.252;2023-06-10T03:14:59;94509.09;;;16.96;100.00
20620;BME280;10469;42.720;23.252;2023-06-10T03:17:25;94514.06;;;16.84;100.00
20620;BME280;10469;42.720;23.252;2023-06-10T03:19:51;94519.53;;;16.78;100.00
20620;BME280;10469;42.720;23.252;2023-06-10T03:22:17;94518.19;;;16.71;100.00
20620;BME280;10469;42.720;23.252;2023-06-10T03:24:42;94519.06;;;16.66;100.00
20620;BME280;10469;42.720;23.252;2023-06-10T03:27:10;94513.13;;;16.64;100.00
20620;BME280;10469;42.720;23.252;2023-06-10T03:29:39;94533.69;;;16.65;100.00
20620;BME280;10469;42.720;23.252;2023-06-10T03:32:05;94528.53;;;16.69;100.00
20620;BME280;10469;42.720;23.252;2023-06-10T03:34:31;94520.72;;;16.62;100.00
20620;BME280;10469;42.720;23.252;2023-06-10T03:36:57;94521.19;;;16.69;100.00
20620;BME280;10469;42.720;23.252;2023-06-10T03:39:23;94536.06;;;16.77;100.00
20620;BME280;10469;42.720;23.252;2023-06-10T03:41:50;94524.94;;;16.78;100.00
20620;BME280;10469;42.720;23.252;2023-06-10T03:44:15;94528.03;;;16.96;100.00
20620;BME280;10469;42.720;23.252;2023-06-10T03:46:41;94526.47;;;16.90;100.00
20620;BME280;10469;42.720;23.252;2023-06-10T03:49:07;94522.13;;;16.94;100.00
20620;BME280;10469;42.720;23.252;2023-06-10T03:51:32;94530.69;;;17.06;100.00
20620;BME280;10469;42.720;23.252;2023-06-10T03:53:58;94517.34;;;17.10;100.00
20620;BME280;10469;42.720;23.252;2023-06-10T03:56:24;94525.09;;;17.21;100.00
20620;BME280;10469;42.720;23.252;2023-06-10T03:58:51;94511.78;;;16.96;100.00
20620;BME280;10469;42.720;23.252;2023-06-10T04:01:16;94520.56;;;16.83;100.00
20620;BME280;10469;42.720;23.252;2023-06-10T04:03:43;94505.94;;;16.84;100.00
20620;BME280;10469;42.720;23.252;2023-06-10T04:06:09;94528.03;;;16.96;100.00
20620;BME280;10469;42.720;23.252;2023-06-10T04:08:35;94524.81;;;16.94;100.00
20620;BME280;10469;42.720;23.252;2023-06-10T04:11:01;94532.03;;;17.03;100.00
20620;BME280;10469;42.720;23.252;2023-06-10T04:13:27;94533.41;;;17.01;100.00
20620;BME280;10469;42.720;23.252;2023-06-10T04:15:53;94537.38;;;16.85;100.00
20620;BME280;10469;42.720;23.252;2023-06-10T04:18:20;94543.53;;;16.90;100.00
20620;BME280;10469;42.720;23.252;2023-06-10T04:20:47;94540.47;;;17.02;100.00
20620;BME280;10469;42.720;23.252;2023-06-10T04:23:13;94541.88;;;16.94;100.00
20620;BME280;10469;42.720;23.252;2023-06-10T04:25:38;94536.91;;;17.07;100.00
20620;BME280;10469;42.720;23.252;2023-06-10T04:28:04;94518.91;;;16.87;100.00
20620;BME280;10469;42.720;23.252;2023-06-10T04:30:29;94533.19;;;16.97;100.00
20620;BME280;10469;42.720;23.252;2023-06-10T04:32:57;94521.25;;;16.98;100.00
20620;BME280;10469;42.720;23.252;2023-06-10T04:35:22;94536.28;;;17.15;100.00
20620;BME280;10469;42.720;23.252;2023-06-10T04:37:48;94540.41;;;17.07;100.00
20620;BME280;10469;42.720;23.252;2023-06-10T04:40:14;94542.78;;;17.14;100.00
20620;BME280;10469;42.720;23.252;2023-06-10T04:42:41;94530.47;;;17.26;100.00
20620;BME280;10469;42.720;23.252;2023-06-10T04:45:07;94532.59;;;17.29;100.00
20620;BME280;10469;42.720;23.252;2023-06-10T04:47:33;94543.56;;;17.43;100.00
20620;BME280;10469;42.720;23.252;2023-06-10T04:50:00;94532.50;;;17.64;100.00
20620;BME280;10469;42.720;23.252;2023-06-10T04:52:26;94536.22;;;17.49;100.00
20620;BME280;10469;42.720;23.252;2023-06-10T04:54:53;94530.13;;;18.05;100.00
20620;BME280;10469;42.720;23.252;2023-06-10T04:57:19;94528.56;;;17.99;100.00
20620;BME280;10469;42.720;23.252;2023-06-10T04:59:46;94519.44;;;18.14;100.00
20620;BME280;10469;42.720;23.252;2023-06-10T05:02:11;94525.50;;;18.05;100.00
20620;BME280;10469;42.720;23.252;2023-06-10T05:04:37;94530.28;;;18.33;100.00
20620;BME280;10469;42.720;23.252;2023-06-10T05:07:03;94503.00;;;18.24;100.00
20620;BME280;10469;42.720;23.252;2023-06-10T05:09:29;94526.47;;;18.52;100.00
20620;BME280;10469;42.720;23.252;2023-06-10T05:11:55;94523.34;;;18.26;100.00
20620;BME280;10469;42.720;23.252;2023-06-10T05:14:21;94505.63;;;18.10;100.00
20620;BME280;10469;42.720;23.252;2023-06-10T05:16:50;94526.34;;;18.44;100.00
20620;BME280;10469;42.720;23.252;2023-06-10T05:19:16;94521.03;;;18.71;100.00
20620;BME280;10469;42.720;23.252;2023-06-10T05:21:42;94516.94;;;18.74;100.00
20620;BME280;10469;42.720;23.252;2023-06-10T05:24:07;94520.91;;;18.95;100.00
20620;BME280;10469;42.720;23.252;2023-06-10T05:26:33;94522.56;;;18.77;100.00
20620;BME280;10469;42.720;23.252;2023-06-10T05:29:03;94524.31;;;18.68;100.00
20620;BME280;10469;42.720;23.252;2023-06-10T05:31:29;94528.94;;;18.68;100.00
20620;BME280;10469;42.720;23.252;2023-06-10T05:33:55;94532.53;;;18.63;100.00
20620;BME280;10469;42.720;23.252;2023-06-10T05:36:21;94520.81;;;18.49;100.00
20620;BME280;10469;42.720;23.252;2023-06-10T05:38:47;94529.00;;;19.00;100.00
20620;BME280;10469;42.720;23.252;2023-06-10T05:41:13;94526.28;;;19.00;100.00
20620;BME280;10469;42.720;23.252;2023-06-10T05:43:38;94533.28;;;18.88;100.00
20620;BME280;10469;42.720;23.252;2023-06-10T05:46:05;94535.25;;;18.63;100.00
20620;BME280;10469;42.720;23.252;2023-06-10T05:48:31;94537.84;;;18.73;100.00
20620;BME280;10469;42.720;23.252;2023-06-10T05:50:56;94522.31;;;18.93;100.00
20620;BME280;10469;42.720;23.252;2023-06-10T05:53:22;94521.66;;;18.82;100.00
20620;BME280;10469;42.720;23.252;2023-06-10T05:55:48;94519.44;;;19.03;100.00
20620;BME280;10469;42.720;23.252;2023-06-10T05:58:14;94521.56;;;19.06;100.00
20620;BME280;10469;42.720;23.252;2023-06-10T06:00:40;94533.19;;;18.93;100.00
20620;BME280;10469;42.720;23.252;2023-06-10T06:03:09;94528.66;;;18.88;100.00
20620;BME280;10469;42.720;23.252;2023-06-10T06:05:36;94530.84;;;18.86;100.00
20620;BME280;10469;42.720;23.252;2023-06-10T06:08:06;94529.72;;;19.06;100.00
20620;BME280;10469;42.720;23.252;2023-06-10T06:10:32;94521.19;;;18.80;100.00
20620;BME280;10469;42.720;23.252;2023-06-10T06:12:58;94534.69;;;19.32;100.00
20620;BME280;10469;42.720;23.252;2023-06-10T06:15:23;94527.25;;;19.51;100.00
20620;BME280;10469;42.720;23.252;2023-06-10T06:17:49;94515.09;;;19.90;100.00
20620;BME280;10469;42.720;23.252;2023-06-10T06:20:22;94531.53;;;19.85;100.00
20620;BME280;10469;42.720;23.252;2023-06-10T06:22:48;94525.41;;;19.65;100.00
20620;BME280;10469;42.720;23.252;2023-06-10T06:25:14;94531.03;;;19.96;100.00
20620;BME280;10469;42.720;23.252;2023-06-10T06:27:40;94519.34;;;19.68;100.00
20620;BME280;10469;42.720;23.252;2023-06-10T06:30:07;94526.34;;;19.42;100.00
20620;BME280;10469;42.720;23.252;2023-06-10T06:32:33;94525.63;;;19.22;100.00
20620;BME280;10469;42.720;23.252;2023-06-10T06:34:58;94542.31;;;19.29;100.00
20620;BME280;10469;42.720;23.252;2023-06-10T06:37:25;94536.22;;;19.38;100.00
20620;BME280;10469;42.720;23.252;2023-06-10T06:39:51;94521.78;;;19.70;100.00
20620;BME280;10469;42.720;23.252;2023-06-10T06:42:17;94523.88;;;19.73;100.00
20620;BME280;10469;42.720;23.252;2023-06-10T06:44:43;94504.81;;;19.59;100.00
20620;BME280;10469;42.720;23.252;2023-06-10T06:47:09;94513.91;;;19.96;100.00
20620;BME280;10469;42.720;23.252;2023-06-10T06:49:34;94516.28;;;20.11;100.00
20620;BME280;10469;42.720;23.252;2023-06-10T06:52:01;94507.69;;;20.32;100.00
20620;BME280;10469;42.720;23.252;2023-06-10T06:54:26;94511.19;;;20.32;100.00
20620;BME280;10469;42.720;23.252;2023-06-10T06:56:52;94516.69;;;20.91;100.00
20620;BME280;10469;42.720;23.252;2023-06-10T06:59:18;94506.69;;;20.64;100.00
20620;BME280;10469;42.720;23.252;2023-06-10T07:01:46;94467.72;;;21.88;100.00
20620;BME280;10469;42.720;23.252;2023-06-10T07:04:14;94495.94;;;22.75;100.00
20620;BME280;10469;42.720;23.252;2023-06-10T07:06:41;94490.00;;;24.73;100.00
20620;BME280;10469;42.720;23.252;2023-06-10T07:09:09;94480.13;;;24.81;100.00
20620;BME280;10469;42.720;23.252;2023-06-10T07:11:35;94477.44;;;24.93;100.00
20620;BME280;10469;42.720;23.252;2023-06-10T07:14:01;94464.69;;;26.40;100.00
20620;BME280;10469;42.720;23.252;2023-06-10T07:16:26;94473.63;;;26.90;100.00
20620;BME280;10469;42.720;23.252;2023-06-10T07:18:52;94472.69;;;24.60;100.00
20620;BME280;10469;42.720;23.252;2023-06-10T07:21:18;94471.03;;;25.80;100.00
20620;BME280;10469;42.720;23.252;2023-06-10T07:23:44;94465.88;;;26.27;100.00
20620;BME280;10469;42.720;23.252;2023-06-10T07:26:11;94455.94;;;26.63;100.00
20620;BME280;10469;42.720;23.252;2023-06-10T07:28:39;94474.47;;;25.76;100.00
20620;BME280;10469;42.720;23.252;2023-06-10T07:31:05;94476.78;;;25.41;100.00
20620;BME280;10469;42.720;23.252;2023-06-10T07:33:31;94463.16;;;26.67;100.00
20620;BME280;10469;42.720;23.252;2023-06-10T07:35:56;94459.97;;;29.03;100.00
20620;BME280;10469;42.720;23.252;2023-06-10T07:38:22;94470.94;;;28.29;100.00
20620;BME280;10469;42.720;23.252;2023-06-10T07:40:48;94470.00;;;25.96;100.00
20620;BME280;10469;42.720;23.252;2023-06-10T07:43:13;94468.88;;;25.27;100.00
20620;BME280;10469;42.720;23.252;2023-06-10T07:45:40;94470.75;;;26.34;100.00
20620;BME280;10469;42.720;23.252;2023-06-10T07:48:06;94468.75;;;25.82;100.00
20620;BME280;10469;42.720;23.252;2023-06-10T07:50:34;94473.75;;;26.16;100.00
20620;BME280;10469;42.720;23.252;2023-06-10T07:52:59;94457.16;;;25.64;100.00
20620;BME280;10469;42.720;23.252;2023-06-10T07:55:25;94464.03;;;26.84;100.00
20620;BME280;10469;42.720;23.252;2023-06-10T07:57:52;94467.13;;;27.38;100.00
20620;BME280;10469;42.720;23.252;2023-06-10T08:00:18;94460.00;;;27.37;100.00
20620;BME280;10469;42.720;23.252;2023-06-10T08:02:44;94449.03;;;27.09;100.00
20620;BME280;10469;42.720;23.252;2023-06-10T08:05:13;94460.00;;;26.53;100.00
20620;BME280;10469;42.720;23.252;2023-06-10T08:07:40;94469.34;;;25.99;100.00
20620;BME280;10469;42.720;23.252;2023-06-10T08:10:06;94455.25;;;26.94;100.00
20620;BME280;10469;42.720;23.252;2023-06-10T08:12:33;94469.19;;;26.45;100.00
20620;BME280;10469;42.720;23.252;2023-06-10T08:15:00;94465.59;;;26.57;100.00
20620;BME280;10469;42.720;23.252;2023-06-10T08:17:25;94454.06;;;26.39;100.00
20620;BME280;10469;42.720;23.252;2023-06-10T08:19:51;94444.66;;;27.52;100.00
20620;BME280;10469;42.720;23.252;2023-06-10T08:22:17;94452.44;;;27.18;100.00
20620;BME280;10469;42.720;23.252;2023-06-10T08:24:42;94439.00;;;27.77;100.00
20620;BME280;10469;42.720;23.252;2023-06-10T08:27:08;94438.78;;;28.17;100.00
20620;BME280;10469;42.720;23.252;2023-06-10T08:29:34;94441.34;;;27.02;100.00
20620;BME280;10469;42.720;23.252;2023-06-10T08:32:00;94441.91;;;26.52;100.00
20620;BME280;10469;42.720;23.252;2023-06-10T08:34:25;94437.50;;;27.19;100.00
20620;BME280;10469;42.720;23.252;2023-06-10T08:36:51;94434.50;;;27.24;100.00
20620;BME280;10469;42.720;23.252;2023-06-10T08:39:20;94440.91;;;26.72;100.00
20620;BME280;10469;42.720;23.252;2023-06-10T08:41:56;94437.56;;;27.83;100.00
20620;BME280;10469;42.720;23.252;2023-06-10T08:44:28;94425.22;;;28.27;98.71
20620;BME280;10469;42.720;23.252;2023-06-10T08:46:59;94425.75;;;29.07;93.92
20620;BME280;10469;42.720;23.252;2023-06-10T08:49:26;94428.84;;;27.05;100.00
20620;BME280;10469;42.720;23.252;2023-06-10T08:51:59;94423.22;;;26.86;100.00
20620;BME280;10469;42.720;23.252;2023-06-10T08:54:28;94427.03;;;26.28;100.00
20620;BME280;10469;42.720;23.252;2023-06-10T08:56:55;94424.72;;;27.11;100.00
20620;BME280;10469;42.720;23.252;2023-06-10T08:59:23;94414.78;;;29.34;92.11
20620;BME280;10469;42.720;23.252;2023-06-10T09:01:50;94418.97;;;29.24;89.25
20620;BME280;10469;42.720;23.252;2023-06-10T09:04:18;94413.47;;;27.95;95.37
20620;BME280;10469;42.720;23.252;2023-06-10T09:06:45;94411.94;;;28.68;90.88
20620;BME280;10469;42.720;23.252;2023-06-10T09:09:12;94402.38;;;29.66;89.49
20620;BME280;10469;42.720;23.252;2023-06-10T09:11:39;94409.81;;;28.07;94.94
20620;BME280;10469;42.720;23.252;2023-06-10T09:14:06;94413.75;;;27.74;97.25
20620;BME280;10469;42.720;23.252;2023-06-10T09:16:31;94421.41;;;26.25;100.00
20620;BME280;10469;42.720;23.252;2023-06-10T09:18:57;94402.13;;;28.16;95.07
20620;BME280;10469;42.720;23.252;2023-06-10T09:21:24;94408.78;;;29.28;93.17
20620;BME280;10469;42.720;23.252;2023-06-10T09:23:50;94396.38;;;31.38;70.20
20620;BME280;10469;42.720;23.252;2023-06-10T09:26:16;94397.13;;;29.15;69.96
20620;BME280;10469;42.720;23.252;2023-06-10T09:28:49;94396.25;;;28.72;78.38
20620;BME280;10469;42.720;23.252;2023-06-10T09:31:16;94395.91;;;29.82;67.68
20620;BME280;10469;42.720;23.252;2023-06-10T09:33:44;94386.34;;;30.29;73.70
20620;BME280;10469;42.720;23.252;2023-06-10T09:36:10;94388.06;;;31.82;60.00
20620;BME280;10469;42.720;23.252;2023-06-10T09:38:37;94387.34;;;32.44;60.72
20620;BME280;10469;42.720;23.252;2023-06-10T09:41:03;94379.41;;;31.06;58.23
20620;BME280;10469;42.720;23.252;2023-06-10T09:43:40;94381.56;;;30.86;53.31
20620;BME280;10469;42.720;23.252;2023-06-10T09:46:06;94367.41;;;29.78;61.55
20620;BME280;10469;42.720;23.252;2023-06-10T09:48:41;94373.53;;;31.48;52.89
20620;BME280;10469;42.720;23.252;2023-06-10T09:51:12;94373.16;;;31.97;52.13
20620;BME280;10469;42.720;23.252;2023-06-10T09:53:39;94365.59;;;29.62;62.79
20620;BME280;10469;42.720;23.252;2023-06-10T09:56:05;94364.72;;;31.35;50.84
20620;BME280;10469;42.720;23.252;2023-06-10T09:58:38;94370.47;;;32.78;48.00
20620;BME280;10469;42.720;23.252;2023-06-10T10:01:11;94362.38;;;32.51;50.04
20620;BME280;10469;42.720;23.252;2023-06-10T10:03:49;94359.25;;;32.53;49.34
20620;BME280;10469;42.720;23.252;2023-06-10T10:06:17;94357.66;;;29.61;66.95
20620;BME280;10469;42.720;23.252;2023-06-10T10:08:43;94344.84;;;33.63;47.16
20620;BME280;10469;42.720;23.252;2023-06-10T10:11:10;94350.75;;;32.28;48.77
20620;BME280;10469;42.720;23.252;2023-06-10T10:13:37;94354.72;;;31.71;52.84
20620;BME280;10469;42.720;23.252;2023-06-10T10:16:46;94347.31;;;30.34;61.52
20620;BME280;10469;42.720;23.252;2023-06-10T10:19:15;94349.69;;;29.33;67.64
20620;BME280;10469;42.720;23.252;2023-06-10T10:21:51;94333.22;;;30.76;55.08
20620;BME280;10469;42.720;23.252;2023-06-10T10:24:23;94325.75;;;32.24;47.44
20620;BME280;10469;42.720;23.252;2023-06-10T10:26:54;94334.50;;;34.20;42.53
20620;BME280;10469;42.720;23.252;2023-06-10T10:29:35;94326.56;;;33.40;43.31
20620;BME280;10469;42.720;23.252;2023-06-10T10:32:02;94338.84;;;31.68;46.75
20620;BME280;10469;42.720;23.252;2023-06-10T10:34:50;94334.41;;;30.45;56.36
20620;BME280;10469;42.720;23.252;2023-06-10T10:37:19;94329.09;;;30.03;55.56
20620;BME280;10469;42.720;23.252;2023-06-10T10:39:45;94324.25;;;29.96;53.47
20620;BME280;10469;42.720;23.252;2023-06-10T10:42:12;94318.91;;;32.04;44.00
20620;BME280;10469;42.720;23.252;2023-06-10T10:44:38;94321.56;;;31.86;46.17
20620;BME280;10469;42.720;23.252;2023-06-10T10:47:08;94319.44;;;33.57;41.82
20620;BME280;10469;42.720;23.252;2023-06-10T10:49:35;94321.03;;;31.66;46.83
20620;BME280;10469;42.720;23.252;2023-06-10T10:52:03;94312.69;;;29.14;61.76
20620;BME280;10469;42.720;23.252;2023-06-10T10:54:32;94315.78;;;28.47;73.86
20620;BME280;10469;42.720;23.252;2023-06-10T10:57:18;94289.44;;;28.50;74.40
20620;BME280;10469;42.720;23.252;2023-06-10T10:59:58;94308.22;;;28.44;78.50
20620;BME280;10469;42.720;23.252;2023-06-10T11:05:04;94306.53;;;28.20;81.80
20620;BME280;10469;42.720;23.252;2023-06-10T11:07:34;94301.06;;;28.05;81.31
20620;BME280;10469;42.720;23.252;2023-06-10T11:10:11;94284.81;;;28.58;71.96
20620;BME280;10469;42.720;23.252;2023-06-10T11:15:12;94292.41;;;31.51;56.38
20620;BME280;10469;42.720;23.252;2023-06-10T11:26:20;94279.69;;;28.17;81.68
20620;BME280;10469;42.720;23.252;2023-06-10T11:31:33;94268.31;;;29.27;74.47
20620;BME280;10469;42.720;23.252;2023-06-10T11:34:03;94266.25;;;28.97;79.16
20620;BME280;10469;42.720;23.252;2023-06-10T11:36:31;94258.41;;;28.57;83.79
20620;BME280;10469;42.720;23.252;2023-06-10T11:39:04;94256.00;;;29.20;78.13
20620;BME280;10469;42.720;23.252;2023-06-10T11:41:31;94265.50;;;29.72;69.10
20620;BME280;10469;42.720;23.252;2023-06-10T11:44:17;94256.13;;;28.82;78.91
20620;BME280;10469;42.720;23.252;2023-06-10T11:46:44;94259.59;;;28.98;76.97
20620;BME280;10469;42.720;23.252;2023-06-10T11:49:10;94267.13;;;28.00;80.46
20620;BME280;10469;42.720;23.252;2023-06-10T11:51:40;94250.31;;;27.86;83.27
20620;BME280;10469;42.720;23.252;2023-06-10T11:54:09;94260.84;;;28.39;81.86
20620;BME280;10469;42.720;23.252;2023-06-10T11:56:35;94250.03;;;27.91;74.47
20620;BME280;10469;42.720;23.252;2023-06-10T11:59:06;94245.69;;;27.55;73.08
20620;BME280;10469;42.720;23.252;2023-06-10T12:01:37;94255.94;;;27.74;75.14
20620;BME280;10469;42.720;23.252;2023-06-10T12:04:10;94256.03;;;27.62;76.99
20620;BME280;10469;42.720;23.252;2023-06-10T12:06:46;94253.06;;;28.06;70.81
20620;BME280;10469;42.720;23.252;2023-06-10T12:09:13;94260.94;;;28.65;58.56
20620;BME280;10469;42.720;23.252;2023-06-10T12:11:39;94247.06;;;28.00;63.82
20620;BME280;10469;42.720;23.252;2023-06-10T12:14:05;94242.97;;;27.74;60.99
20620;BME280;10469;42.720;23.252;2023-06-10T12:16:31;94252.19;;;28.01;58.96
20620;BME280;10469;42.720;23.252;2023-06-10T12:19:05;94246.09;;;27.92;60.26
20620;BME280;10469;42.720;23.252;2023-06-10T12:21:33;94255.59;;;28.34;56.52
20620;BME280;10469;42.720;23.252;2023-06-10T12:26:37;94252.03;;;26.61;80.19
20620;BME280;10469;42.720;23.252;2023-06-10T12:29:17;94242.88;;;26.72;76.08
20620;BME280;10469;42.720;23.252;2023-06-10T12:34:30;94239.00;;;27.56;63.47
20620;BME280;10469;42.720;23.252;2023-06-10T12:36:56;94244.13;;;27.73;60.36
20620;BME280;10469;42.720;23.252;2023-06-10T12:39:21;94233.84;;;27.55;55.63
20620;BME280;10469;42.720;23.252;2023-06-10T12:41:48;94225.00;;;27.45;55.65
20620;BME280;10469;42.720;23.252;2023-06-10T12:44:15;94228.13;;;27.44;56.28
20620;BME280;10469;42.720;23.252;2023-06-10T12:46:40;94235.28;;;27.48;57.80
20620;BME280;10469;42.720;23.252;2023-06-10T12:49:06;94223.94;;;27.69;56.08
20620;BME280;10469;42.720;23.252;2023-06-10T12:51:32;94244.81;;;27.35;60.49
20620;BME280;10469;42.720;23.252;2023-06-10T12:53:59;94245.19;;;27.69;57.77
20620;BME280;10469;42.720;23.252;2023-06-10T12:56:25;94242.94;;;27.55;57.12
20620;BME280;10469;42.720;23.252;2023-06-10T12:58:51;94233.38;;;27.33;61.38
20620;BME280;10469;42.720;23.252;2023-06-10T13:01:16;94245.66;;;26.88;64.46
20620;BME280;10469;42.720;23.252;2023-06-10T13:03:42;94257.34;;;25.33;86.83
20620;BME280;10469;42.720;23.252;2023-06-10T13:06:08;94262.94;;;24.09;100.00
20620;BME280;10469;42.720;23.252;2023-06-10T13:08:33;94260.53;;;23.44;100.00